createdAt,value
2019-03-16T00:00:23.052Z,1002.22
2019-03-16T00:01:23.030Z,1002.40
2019-03-16T00:02:23.068Z,1002.24
2019-03-16T00:03:23.067Z,1002.33
2019-03-16T00:04:23.096Z,1002.33
2019-03-16T00:05:23.109Z,1002.44
2019-03-16T00:06:23.119Z,1002.28
2019-03-16T00:07:32.966Z,1002.34
2019-03-16T00:08:23.159Z,1002.36
2019-03-16T00:09:23.167Z,1002.35
2019-03-16T00:10:23.259Z,1002.35
2019-03-16T00:11:23.208Z,1002.43
2019-03-16T00:12:23.218Z,1002.28
2019-03-16T00:13:23.247Z,1002.43
2019-03-16T00:14:23.254Z,1002.28
2019-03-16T00:15:23.285Z,1002.31
2019-03-16T00:16:23.292Z,1002.37
2019-03-16T00:17:23.911Z,1002.37
2019-03-16T00:18:23.315Z,1002.35
2019-03-16T00:19:23.330Z,1002.37
2019-03-16T00:20:23.405Z,1002.37
2019-03-16T00:21:23.363Z,1002.31
2019-03-16T00:22:23.409Z,1002.40
2019-03-16T00:23:23.398Z,1002.37
2019-03-16T00:24:23.439Z,1002.38
2019-03-16T00:25:23.521Z,1002.32
2019-03-16T00:26:23.451Z,1002.41
2019-03-16T00:27:23.465Z,1002.34
2019-03-16T00:28:23.485Z,1002.30
2019-03-16T00:29:23.508Z,1002.29
2019-03-16T00:30:23.512Z,1002.28
2019-03-16T00:31:23.543Z,1002.35
2019-03-16T00:32:23.552Z,1002.36
2019-03-16T00:33:23.564Z,1002.36
2019-03-16T00:34:23.597Z,1002.42
2019-03-16T00:35:23.600Z,1002.38
2019-03-16T00:36:23.626Z,1002.35
2019-03-16T00:37:23.627Z,1002.40
2019-03-16T00:38:23.694Z,1002.32
2019-03-16T00:39:23.704Z,1002.26
2019-03-16T00:40:23.679Z,1002.37
2019-03-16T00:41:23.700Z,1002.35
2019-03-16T00:42:23.776Z,1002.37
2019-03-16T00:43:23.735Z,1002.30
2019-03-16T00:44:23.756Z,1002.22
2019-03-16T00:45:23.770Z,1002.33
2019-03-16T00:46:23.781Z,1002.21
2019-03-16T00:47:23.796Z,1002.28
2019-03-16T00:48:23.811Z,1002.19
2019-03-16T00:49:23.831Z,1002.30
2019-03-16T00:50:23.860Z,1002.31
2019-03-16T00:51:23.879Z,1002.14
2019-03-16T00:52:23.935Z,1002.24
2019-03-16T00:53:23.900Z,1002.23
2019-03-16T00:54:23.911Z,1002.30
2019-03-16T00:55:23.928Z,1002.33
2019-03-16T00:56:23.950Z,1002.18
2019-03-16T00:57:23.964Z,1002.31
2019-03-16T00:58:23.978Z,1002.33
2019-03-16T00:59:23.997Z,1002.35
2019-03-16T01:00:24.011Z,1002.37
2019-03-16T01:01:24.023Z,1002.30
2019-03-16T01:02:27.472Z,1002.45
2019-03-16T01:03:24.059Z,1002.25
2019-03-16T01:04:24.119Z,1002.21
2019-03-16T01:05:24.103Z,1002.35
2019-03-16T01:06:24.107Z,1002.23
2019-03-16T01:07:24.126Z,1002.28
2019-03-16T01:08:24.142Z,1002.26
2019-03-16T01:09:24.164Z,1002.28
2019-03-16T01:10:24.180Z,1002.33
2019-03-16T01:11:24.198Z,1002.29
2019-03-16T01:12:24.250Z,1002.30
2019-03-16T01:13:24.223Z,1002.31
2019-03-16T01:14:24.242Z,1002.27
2019-03-16T01:15:24.262Z,1002.28
2019-03-16T01:16:24.272Z,1002.22
2019-03-16T01:17:24.300Z,1002.29
2019-03-16T01:18:24.309Z,1002.24
2019-03-16T01:19:24.327Z,1002.27
2019-03-16T01:20:24.347Z,1002.28
2019-03-16T01:21:24.370Z,1002.39
2019-03-16T01:22:24.371Z,1002.37
2019-03-16T01:23:24.397Z,1002.42
2019-03-16T01:24:24.408Z,1002.41
2019-03-16T01:25:24.439Z,1002.44
2019-03-16T01:26:24.484Z,1002.37
2019-03-16T01:27:24.477Z,1002.36
2019-03-16T01:28:24.473Z,1002.32
2019-03-16T01:29:24.490Z,1002.34
2019-03-16T01:30:24.509Z,1002.30
2019-03-16T01:31:24.516Z,1002.36
2019-03-16T01:32:24.550Z,1002.38
2019-03-16T01:33:24.562Z,1002.34
2019-03-16T01:34:24.580Z,1002.35
2019-03-16T01:35:24.589Z,1002.38
2019-03-16T01:36:24.606Z,1002.31
2019-03-16T01:37:24.667Z,1002.39
2019-03-16T01:38:24.646Z,1002.33
2019-03-16T01:39:24.652Z,1002.44
2019-03-16T01:40:24.684Z,1002.37
2019-03-16T01:41:24.685Z,1002.32
2019-03-16T01:42:24.702Z,1002.26
2019-03-16T01:43:24.723Z,1002.33
2019-03-16T01:44:24.735Z,1002.26
2019-03-16T01:45:24.754Z,1002.21
2019-03-16T01:46:24.776Z,1002.21
2019-03-16T01:47:24.839Z,1002.32
2019-03-16T01:48:24.798Z,1002.27
2019-03-16T01:49:24.818Z,1002.39
2019-03-16T01:50:24.839Z,1002.29
2019-03-16T01:52:24.865Z,1002.37
2019-03-16T01:53:24.888Z,1002.40
2019-03-16T01:54:24.912Z,1002.50
2019-03-16T01:55:24.916Z,1002.35
2019-03-16T01:56:24.931Z,1002.38
2019-03-16T01:58:24.965Z,1002.40
2019-03-16T01:59:24.983Z,1002.41
2019-03-16T02:00:25.000Z,1002.43
2019-03-16T02:01:25.016Z,1002.47
2019-03-16T02:02:25.032Z,1002.38
2019-03-16T02:04:25.058Z,1002.53
2019-03-16T02:05:25.082Z,1002.42
2019-03-16T02:06:25.097Z,1002.52
2019-03-16T02:07:25.130Z,1002.46
2019-03-16T02:08:25.131Z,1002.46
2019-03-16T02:09:25.147Z,1002.43
2019-03-16T02:10:25.172Z,1002.49
2019-03-16T02:11:25.179Z,1002.44
2019-03-16T02:13:25.255Z,1002.37
2019-03-16T02:14:25.263Z,1002.42
2019-03-16T02:15:25.289Z,1002.40
2019-03-16T02:16:25.297Z,1002.40
2019-03-16T02:17:25.348Z,1002.40
2019-03-16T02:27:44.522Z,1002.35
2019-03-16T02:28:44.538Z,1002.29
2019-03-16T02:29:44.560Z,1002.35
2019-03-16T02:30:44.578Z,1002.33
2019-03-16T02:31:44.590Z,1002.30
2019-03-16T02:32:44.617Z,1002.40
2019-03-16T02:33:44.608Z,1002.39
2019-03-16T02:34:44.598Z,1002.44
2019-03-16T02:35:44.616Z,1002.35
2019-03-16T02:36:44.631Z,1002.41
2019-03-16T02:37:44.651Z,1002.39
2019-03-16T02:38:44.668Z,1002.35
2019-03-16T02:39:44.681Z,1002.35
2019-03-16T02:40:44.701Z,1002.40
2019-03-16T02:41:44.849Z,1002.35
2019-03-16T02:42:44.729Z,1002.40
2019-03-16T02:43:44.779Z,1002.41
2019-03-16T02:44:44.780Z,1002.28
2019-03-16T02:45:44.783Z,1002.37
2019-03-16T02:46:44.826Z,1002.32
2019-03-16T02:47:44.819Z,1002.31
2019-03-16T02:48:44.838Z,1002.31
2019-03-16T02:49:44.857Z,1002.37
2019-03-16T02:50:44.857Z,1002.30
2019-03-16T02:51:44.881Z,1002.30
2019-03-16T02:52:49.305Z,1002.29
2019-03-16T02:53:44.908Z,1002.33
2019-03-16T02:55:44.978Z,1002.42
2019-03-16T02:56:44.999Z,1002.38
2019-03-16T02:57:44.999Z,1002.34
2019-03-16T02:58:44.990Z,1002.43
2019-03-16T02:59:45.014Z,1002.43
2019-03-16T03:00:45.017Z,1002.39
2019-03-16T03:01:45.037Z,1002.57
2019-03-16T03:02:45.054Z,1002.44
2019-03-16T03:03:45.076Z,1002.47
2019-03-16T03:05:45.254Z,1002.44
2019-03-16T03:06:45.202Z,1002.43
2019-03-16T03:07:45.170Z,1002.38
2019-03-16T03:08:45.209Z,1002.42
2019-03-16T03:09:45.199Z,1002.42
2019-03-16T03:10:45.263Z,1002.37
2019-03-16T03:12:06.256Z,1002.44
2019-03-16T03:12:45.256Z,1002.41
2019-03-16T03:13:45.297Z,1002.37
2019-03-16T03:14:45.304Z,1002.38
2019-03-16T03:15:45.388Z,1002.41
2019-03-16T03:16:45.329Z,1002.35
2019-03-16T03:18:06.390Z,1002.39
2019-03-16T03:18:49.336Z,1002.38
2019-03-16T03:19:45.372Z,1002.37
2019-03-16T03:20:45.395Z,1002.37
2019-03-16T03:21:45.396Z,1002.41
2019-03-16T03:22:45.409Z,1002.37
2019-03-16T03:24:06.449Z,1002.38
2019-03-16T03:24:45.459Z,1002.41
2019-03-16T03:25:45.594Z,1002.37
2019-03-16T03:26:45.446Z,1002.40
2019-03-16T03:27:45.498Z,1002.39
2019-03-16T03:28:45.484Z,1002.38
2019-03-16T03:29:45.501Z,1002.39
2019-03-16T03:30:45.514Z,1002.40
2019-03-16T03:32:45.549Z,1002.38
2019-03-16T03:33:59.889Z,1002.37
2019-03-16T03:34:45.574Z,1002.34
2019-03-16T03:35:45.590Z,1002.32
2019-03-16T03:36:45.608Z,1002.28
2019-03-16T03:37:45.623Z,1002.28
2019-03-16T03:38:45.660Z,1002.40
2019-03-16T03:40:45.680Z,1002.28
2019-03-16T03:41:45.690Z,1002.40
2019-03-16T03:42:45.710Z,1002.33
2019-03-16T03:43:45.720Z,1002.31
2019-03-16T03:44:45.736Z,1002.33
2019-03-16T03:45:45.752Z,1002.31
2019-03-16T03:46:45.778Z,1002.24
2019-03-16T03:47:45.782Z,1002.27
2019-03-16T03:48:45.814Z,1002.28
2019-03-16T03:50:45.835Z,1002.30
2019-03-16T03:51:45.859Z,1002.32
2019-03-16T03:52:45.945Z,1002.32
2019-03-16T03:53:45.900Z,1002.32
2019-03-16T03:54:45.898Z,1002.37
2019-03-16T03:55:45.913Z,1002.31
2019-03-16T03:56:45.932Z,1002.31
2019-03-16T03:57:46.004Z,1002.38
2019-03-16T03:58:45.963Z,1002.33
2019-03-16T03:59:45.997Z,1002.26
2019-03-16T04:00:46.002Z,1002.33
2019-03-16T04:01:46.039Z,1002.33
2019-03-16T04:02:46.041Z,1002.31
2019-03-16T04:04:46.105Z,1002.35
2019-03-16T04:05:46.139Z,1002.28
2019-03-16T04:06:46.137Z,1002.27
2019-03-16T04:07:46.248Z,1002.28
2019-03-16T04:08:46.176Z,1002.24
2019-03-16T04:09:46.208Z,1002.26
2019-03-16T04:10:46.172Z,1002.25
2019-03-16T04:11:46.179Z,1002.24
2019-03-16T04:12:46.195Z,1002.14
2019-03-16T04:13:46.218Z,1002.21
2019-03-16T04:14:46.223Z,1002.17
2019-03-16T04:15:46.241Z,1002.15
2019-03-16T04:16:46.260Z,1002.26
2019-03-16T04:17:46.370Z,1002.25
2019-03-16T04:19:46.313Z,1002.30
2019-03-16T04:20:46.453Z,1002.36
2019-03-16T04:21:46.378Z,1002.29
2019-03-16T04:22:46.358Z,1002.26
2019-03-16T04:23:46.378Z,1002.27
2019-03-16T04:24:46.402Z,1002.24
2019-03-16T04:25:46.409Z,1002.18
2019-03-16T04:26:46.423Z,1002.20
2019-03-16T04:27:46.499Z,1002.30
2019-03-16T04:28:46.463Z,1002.32
2019-03-16T04:29:46.477Z,1002.21
2019-03-16T04:30:46.499Z,1002.32
2019-03-16T04:31:46.507Z,1002.27
2019-03-16T04:32:46.590Z,1002.20
2019-03-16T04:35:46.575Z,1002.31
2019-03-16T04:36:46.589Z,1002.28
2019-03-16T04:37:46.608Z,1002.25
2019-03-16T04:38:46.642Z,1002.24
2019-03-16T04:39:46.636Z,1002.29
2019-03-16T04:40:46.659Z,1002.27
2019-03-16T04:41:46.679Z,1002.19
2019-03-16T04:42:46.717Z,1002.24
2019-03-16T04:43:46.701Z,1002.30
2019-03-16T04:44:46.723Z,1002.21
2019-03-16T04:45:46.743Z,1002.24
2019-03-16T04:46:46.762Z,1002.33
2019-03-16T04:47:46.772Z,1002.36
2019-03-16T04:48:46.793Z,1002.25
2019-03-16T04:49:46.807Z,1002.33
2019-03-16T04:50:46.862Z,1002.27
2019-03-16T04:51:46.834Z,1002.29
2019-03-16T04:52:46.861Z,1002.29
2019-03-16T04:54:46.888Z,1002.26
2019-03-16T04:55:46.903Z,1002.30
2019-03-16T04:56:46.936Z,1002.30
2019-03-16T04:57:46.935Z,1002.36
2019-03-16T04:58:46.951Z,1002.22
2019-03-16T04:59:46.976Z,1002.21
2019-03-16T05:00:46.984Z,1002.29
2019-03-16T05:01:47.001Z,1002.22
2019-03-16T05:02:47.106Z,1002.26
2019-03-16T05:03:47.033Z,1002.25
2019-03-16T05:04:47.047Z,1002.24
2019-03-16T05:05:47.071Z,1002.23
2019-03-16T05:06:47.081Z,1002.24
2019-03-16T05:08:47.118Z,1002.21
2019-03-16T05:09:47.251Z,1002.34
2019-03-16T05:10:47.152Z,1002.24
2019-03-16T05:11:47.165Z,1002.31
2019-03-16T05:12:47.185Z,1002.39
2019-03-16T05:13:47.210Z,1002.38
2019-03-16T05:14:47.219Z,1002.30
2019-03-16T05:15:50.636Z,1002.35
2019-03-16T05:16:47.258Z,1002.42
2019-03-16T05:17:47.269Z,1002.37
2019-03-16T05:19:47.383Z,1002.40
2019-03-16T05:20:47.318Z,1002.40
2019-03-16T05:21:47.327Z,1002.41
2019-03-16T05:22:47.341Z,1002.48
2019-03-16T05:23:47.365Z,1002.44
2019-03-16T05:24:47.473Z,1002.46
2019-03-16T05:25:47.394Z,1002.43
2019-03-16T05:26:47.405Z,1002.45
2019-03-16T05:27:47.423Z,1002.38
2019-03-16T05:28:47.447Z,1002.52
2019-03-16T05:29:47.460Z,1002.53
2019-03-16T05:30:47.481Z,1002.46
2019-03-16T05:31:50.555Z,1002.55
2019-03-16T05:32:47.510Z,1002.50
2019-03-16T05:33:47.529Z,1002.58
2019-03-16T05:34:56.290Z,1002.57
2019-03-16T05:35:47.555Z,1002.59
2019-03-16T05:36:47.574Z,1002.52
2019-03-16T05:37:47.587Z,1002.49
2019-03-16T05:38:47.619Z,1002.63
2019-03-16T05:39:47.622Z,1002.55
2019-03-16T05:40:47.635Z,1002.56
2019-03-16T05:41:47.656Z,1002.56
2019-03-16T05:42:47.675Z,1002.58
2019-03-16T05:43:47.679Z,1002.56
2019-03-16T05:44:47.698Z,1002.58
2019-03-16T05:45:47.717Z,1002.57
2019-03-16T05:46:47.735Z,1002.55
2019-03-16T05:47:47.753Z,1002.53
2019-03-16T05:48:47.763Z,1002.51
2019-03-16T05:49:47.787Z,1002.55
2019-03-16T05:50:47.798Z,1002.51
2019-03-16T05:51:47.810Z,1002.61
2019-03-16T05:52:47.832Z,1002.54
2019-03-16T05:53:47.847Z,1002.49
2019-03-16T05:54:47.926Z,1002.49
2019-03-16T05:55:47.881Z,1002.46
2019-03-16T05:56:47.892Z,1002.49
2019-03-16T05:57:47.911Z,1002.50
2019-03-16T05:58:47.943Z,1002.54
2019-03-16T05:59:47.945Z,1002.52
2019-03-16T06:00:47.957Z,1002.46
2019-03-16T06:01:47.976Z,1002.55
2019-03-16T06:02:47.995Z,1002.52
2019-03-16T06:03:48.008Z,1002.48
2019-03-16T06:04:48.041Z,1002.56
2019-03-16T06:05:48.044Z,1002.52
2019-03-16T06:06:48.059Z,1002.51
2019-03-16T06:07:48.079Z,1002.56
2019-03-16T06:08:48.105Z,1002.57
2019-03-16T06:09:48.109Z,1002.51
2019-03-16T06:10:48.120Z,1002.51
2019-03-16T06:11:48.145Z,1002.56
2019-03-16T06:12:48.157Z,1002.55
2019-03-16T06:13:48.176Z,1002.63
2019-03-16T06:14:48.198Z,1002.71
2019-03-16T06:15:48.208Z,1002.64
2019-03-16T06:16:48.221Z,1002.69
2019-03-16T06:17:48.238Z,1002.64
2019-03-16T06:18:48.262Z,1002.68
2019-03-16T06:19:48.280Z,1002.61
2019-03-16T06:20:48.306Z,1002.66
2019-03-16T06:21:48.301Z,1002.64
2019-03-16T06:22:48.318Z,1002.64
2019-03-16T06:23:48.338Z,1002.66
2019-03-16T06:24:48.361Z,1002.75
2019-03-16T06:25:48.372Z,1002.76
2019-03-16T06:26:48.427Z,1002.78
2019-03-16T06:27:48.426Z,1002.66
2019-03-16T06:28:48.417Z,1002.67
2019-03-16T06:29:48.433Z,1002.87
2019-03-16T06:30:48.471Z,1002.89
2019-03-16T06:31:48.502Z,1002.68
2019-03-16T06:32:48.510Z,1002.63
2019-03-16T06:33:48.505Z,1002.70
2019-03-16T06:34:48.542Z,1002.65
2019-03-16T06:35:48.528Z,1002.61
2019-03-16T06:37:48.568Z,1002.74
2019-03-16T06:38:48.598Z,1002.64
2019-03-16T06:39:48.595Z,1002.74
2019-03-16T06:40:48.628Z,1002.72
2019-03-16T06:41:48.628Z,1002.84
2019-03-16T06:42:48.641Z,1002.76
2019-03-16T06:43:48.681Z,1002.81
2019-03-16T06:44:48.678Z,1002.80
2019-03-16T06:45:48.701Z,1002.80
2019-03-16T06:46:48.709Z,1002.81
2019-03-16T06:47:48.744Z,1002.77
2019-03-16T06:48:48.743Z,1002.82
2019-03-16T06:49:48.765Z,1002.91
2019-03-16T06:50:48.776Z,1002.79
2019-03-16T06:51:48.798Z,1002.89
2019-03-16T06:52:48.806Z,1002.97
2019-03-16T06:53:48.827Z,1002.87
2019-03-16T06:54:48.842Z,1002.94
2019-03-16T06:55:48.883Z,1002.78
2019-03-16T06:56:48.927Z,1002.84
2019-03-16T06:57:48.903Z,1002.87
2019-03-16T06:58:48.915Z,1002.93
2019-03-16T06:59:48.937Z,1002.94
2019-03-16T07:00:48.950Z,1002.94
2019-03-16T07:01:48.973Z,1003.01
2019-03-16T07:02:48.976Z,1002.94
2019-03-16T07:03:48.992Z,1002.94
2019-03-16T07:04:49.010Z,1002.89
2019-03-16T07:05:49.027Z,1003.00
2019-03-16T07:06:49.079Z,1002.99
2019-03-16T07:07:49.060Z,1002.94
2019-03-16T07:08:49.075Z,1002.99
2019-03-16T07:09:49.092Z,1002.94
2019-03-16T07:10:49.105Z,1003.13
2019-03-16T07:11:49.131Z,1003.10
2019-03-16T07:12:49.148Z,1003.05
2019-03-16T07:13:49.156Z,1003.16
2019-03-16T07:14:49.173Z,1003.17
2019-03-16T07:15:49.197Z,1003.14
2019-03-16T07:17:01.466Z,1003.20
2019-03-16T07:17:49.222Z,1003.13
2019-03-16T07:18:58.377Z,1003.24
2019-03-16T07:19:49.257Z,1003.16
2019-03-16T07:20:49.269Z,1003.16
2019-03-16T07:21:49.289Z,1003.23
2019-03-16T07:22:49.317Z,1003.18
2019-03-16T07:23:49.317Z,1003.16
2019-03-16T07:24:51.676Z,1003.25
2019-03-16T07:25:49.354Z,1003.26
2019-03-16T07:26:49.370Z,1003.07
2019-03-16T07:27:49.384Z,1003.20
2019-03-16T07:28:49.401Z,1003.32
2019-03-16T07:29:49.417Z,1003.19
2019-03-16T07:30:49.435Z,1003.19
2019-03-16T07:31:49.468Z,1003.34
2019-03-16T07:32:49.470Z,1003.32
2019-03-16T07:33:49.482Z,1003.25
2019-03-16T07:34:49.502Z,1003.30
2019-03-16T07:35:49.520Z,1003.22
2019-03-16T07:36:49.540Z,1003.28
2019-03-16T07:37:49.553Z,1003.26
2019-03-16T07:38:49.636Z,1003.14
2019-03-16T07:39:49.585Z,1003.41
2019-03-16T07:40:49.600Z,1003.17
2019-03-16T07:41:49.624Z,1003.17
2019-03-16T07:42:49.633Z,1003.28
2019-03-16T07:43:49.652Z,1003.15
2019-03-16T07:44:49.677Z,1003.28
2019-03-16T07:45:49.700Z,1003.24
2019-03-16T07:46:49.698Z,1003.27
2019-03-16T07:48:49.742Z,1003.27
2019-03-16T07:50:49.763Z,1003.25
2019-03-16T07:51:49.791Z,1003.24
2019-03-16T07:52:49.811Z,1003.24
2019-03-16T07:53:49.818Z,1003.33
2019-03-16T07:54:49.835Z,1003.44
2019-03-16T07:55:49.855Z,1003.36
2019-03-16T07:56:49.867Z,1003.32
2019-03-16T07:57:49.885Z,1003.32
2019-03-16T07:58:49.935Z,1003.35
2019-03-16T07:59:49.913Z,1003.49
2019-03-16T08:00:49.934Z,1003.34
2019-03-16T08:01:49.953Z,1003.40
2019-03-16T08:02:49.966Z,1003.40
2019-03-16T08:03:49.996Z,1003.41
2019-03-16T08:04:49.994Z,1003.39
2019-03-16T08:06:50.031Z,1003.44
2019-03-16T08:08:50.068Z,1003.42
2019-03-16T08:09:50.089Z,1003.43
2019-03-16T08:10:50.099Z,1003.46
2019-03-16T08:11:50.115Z,1003.44
2019-03-16T08:12:50.144Z,1003.48
2019-03-16T08:13:50.202Z,1003.51
2019-03-16T08:14:50.166Z,1003.57
2019-03-16T08:15:50.183Z,1003.50
2019-03-16T08:16:50.261Z,1003.48
2019-03-16T08:17:50.219Z,1003.61
2019-03-16T08:18:50.229Z,1003.50
2019-03-16T08:19:50.253Z,1003.59
2019-03-16T08:20:50.290Z,1003.30
2019-03-16T08:21:50.282Z,1003.48
2019-03-16T08:22:50.300Z,1003.55
2019-03-16T08:23:53.554Z,1003.52
2019-03-16T08:24:50.337Z,1003.45
2019-03-16T08:25:50.355Z,1003.45
2019-03-16T08:26:50.363Z,1003.52
2019-03-16T08:27:54.420Z,1003.47
2019-03-16T08:28:50.401Z,1003.57
2019-03-16T08:29:50.417Z,1003.51
2019-03-16T08:30:50.444Z,1003.57
2019-03-16T08:31:50.470Z,1003.48
2019-03-16T08:32:50.463Z,1003.56
2019-03-16T08:34:50.502Z,1003.53
2019-03-16T08:36:50.556Z,1003.57
2019-03-16T08:38:50.606Z,1003.64
2019-03-16T08:39:50.624Z,1003.40
2019-03-16T08:40:50.662Z,1003.50
2019-03-16T08:41:50.646Z,1003.48
2019-03-16T08:42:51.564Z,1003.47
2019-03-16T08:43:50.684Z,1003.55
2019-03-16T08:45:11.720Z,1003.56
2019-03-16T08:45:50.788Z,1003.52
2019-03-16T08:46:50.745Z,1003.52
2019-03-16T08:47:50.758Z,1003.55
2019-03-16T08:48:50.824Z,1003.54
2019-03-16T08:49:50.785Z,1003.52
2019-03-16T08:51:11.808Z,1003.67
2019-03-16T08:51:50.868Z,1003.75
2019-03-16T08:52:53.667Z,1003.50
2019-03-16T08:53:50.878Z,1003.59
2019-03-16T08:54:50.877Z,1003.50
2019-03-16T08:55:50.886Z,1003.41
2019-03-16T08:57:11.926Z,1003.48
2019-03-16T08:57:50.925Z,1003.47
2019-03-16T09:00:37.286Z,1003.56
2019-03-16T09:01:37.306Z,1003.45
2019-03-16T09:02:37.333Z,1003.48
2019-03-16T09:03:58.309Z,1003.56
2019-03-16T09:04:37.301Z,1003.41
2019-03-16T09:05:37.319Z,1003.43
2019-03-16T09:06:37.352Z,1003.40
2019-03-16T09:08:37.369Z,1003.37
2019-03-16T09:09:37.380Z,1003.35
2019-03-16T09:10:37.410Z,1003.23
2019-03-16T09:11:37.413Z,1003.32
2019-03-16T09:12:37.467Z,1003.30
2019-03-16T09:13:37.545Z,1003.29
2019-03-16T09:14:37.465Z,1003.30
2019-03-16T09:15:37.484Z,1003.40
2019-03-16T09:16:37.505Z,1003.32
2019-03-16T09:17:37.529Z,1003.41
2019-03-16T09:18:37.532Z,1003.37
2019-03-16T09:19:37.560Z,1003.30
2019-03-16T09:20:37.571Z,1003.36
2019-03-16T09:21:37.590Z,1003.36
2019-03-16T09:22:37.608Z,1003.26
2019-03-16T09:23:37.704Z,1003.28
2019-03-16T09:25:37.706Z,1003.29
2019-03-16T09:26:37.711Z,1003.48
2019-03-16T09:27:37.726Z,1003.28
2019-03-16T09:28:37.757Z,1003.27
2019-03-16T09:29:37.733Z,1003.37
2019-03-16T09:30:37.748Z,1003.38
2019-03-16T09:31:37.753Z,1003.31
2019-03-16T09:32:37.771Z,1003.38
2019-03-16T09:33:37.805Z,1003.31
2019-03-16T09:34:37.803Z,1003.32
2019-03-16T09:35:37.826Z,1003.33
2019-03-16T09:36:37.843Z,1003.27
2019-03-16T09:39:37.890Z,1003.27
2019-03-16T09:40:37.907Z,1003.30
2019-03-16T09:41:37.923Z,1003.21
2019-03-16T09:42:37.946Z,1003.23
2019-03-16T09:43:38.061Z,1003.24
2019-03-16T09:45:38.005Z,1003.27
2019-03-16T09:46:38.008Z,1003.19
2019-03-16T09:47:38.027Z,1003.32
2019-03-16T09:48:38.040Z,1003.35
2019-03-16T09:49:38.065Z,1003.28
2019-03-16T09:50:38.078Z,1003.29
2019-03-16T09:51:38.091Z,1003.25
2019-03-16T09:52:38.107Z,1003.25
2019-03-16T09:53:38.128Z,1003.24
2019-03-16T09:54:38.146Z,1003.27
2019-03-16T09:55:38.156Z,1003.26
2019-03-16T09:56:38.176Z,1003.35
2019-03-16T09:57:38.196Z,1003.25
2019-03-16T09:58:38.219Z,1003.27
2019-03-16T09:59:38.228Z,1003.25
2019-03-16T10:00:38.249Z,1003.28
2019-03-16T10:01:38.260Z,1003.34
2019-03-16T10:02:38.284Z,1003.32
2019-03-16T10:03:38.317Z,1003.31
2019-03-16T10:04:38.313Z,1003.32
2019-03-16T10:05:38.469Z,1003.45
2019-03-16T10:07:38.361Z,1003.25
2019-03-16T10:08:38.397Z,1003.25
2019-03-16T10:09:38.392Z,1003.25
2019-03-16T10:11:38.425Z,1003.22
2019-03-16T10:12:38.447Z,1003.17
2019-03-16T10:13:38.472Z,1003.20
2019-03-16T10:14:38.486Z,1003.14
2019-03-16T10:15:38.522Z,1003.29
2019-03-16T10:16:38.528Z,1003.16
2019-03-16T10:17:38.537Z,1003.14
2019-03-16T10:18:38.551Z,1003.17
2019-03-16T10:19:38.560Z,1003.08
2019-03-16T10:20:38.578Z,1003.14
2019-03-16T10:21:38.602Z,1003.12
2019-03-16T10:22:38.630Z,1003.09
2019-03-16T10:23:38.631Z,1003.08
2019-03-16T10:24:38.650Z,1003.08
2019-03-16T10:25:38.754Z,1003.13
2019-03-16T10:26:38.689Z,1003.14
2019-03-16T10:27:38.707Z,1003.16
2019-03-16T10:29:38.739Z,1003.09
2019-03-16T10:31:38.804Z,1003.11
2019-03-16T10:32:38.802Z,1003.13
2019-03-16T10:33:38.806Z,1003.06
2019-03-16T10:34:38.831Z,1003.02
2019-03-16T10:35:38.880Z,1003.05
2019-03-16T10:36:38.858Z,1003.02
2019-03-16T10:37:38.870Z,1003.04
2019-03-16T10:38:38.908Z,1003.08
2019-03-16T10:39:38.922Z,1003.06
2019-03-16T10:40:38.943Z,1002.98
2019-03-16T10:41:38.944Z,1003.10
2019-03-16T10:42:38.972Z,1002.99
2019-03-16T10:43:38.991Z,1003.00
2019-03-16T10:44:39.021Z,1002.94
2019-03-16T10:45:39.127Z,1002.93
2019-03-16T10:46:39.034Z,1002.93
2019-03-16T10:47:39.056Z,1002.95
2019-03-16T10:48:39.077Z,1002.91
2019-03-16T10:49:39.091Z,1002.86
2019-03-16T10:50:39.179Z,1002.84
2019-03-16T10:51:39.131Z,1002.85
2019-03-16T10:52:39.140Z,1002.86
2019-03-16T10:53:39.173Z,1002.85
2019-03-16T10:55:39.192Z,1002.84
2019-03-16T10:56:39.209Z,1002.78
2019-03-16T10:57:39.235Z,1002.81
2019-03-16T10:59:39.366Z,1002.80
2019-03-16T11:00:39.331Z,1002.79
2019-03-16T11:01:39.387Z,1002.81
2019-03-16T11:02:39.365Z,1002.79
2019-03-16T11:03:39.767Z,1002.85
2019-03-16T11:04:39.405Z,1002.78
2019-03-16T11:06:00.434Z,1002.76
2019-03-16T11:06:39.429Z,1002.73
2019-03-16T11:07:39.533Z,1002.79
2019-03-16T11:08:39.484Z,1002.73
2019-03-16T11:09:39.513Z,1002.83
2019-03-16T11:10:39.505Z,1002.67
2019-03-16T11:12:00.529Z,1002.54
2019-03-16T11:12:39.504Z,1002.67
2019-03-16T11:13:39.531Z,1002.55
2019-03-16T11:14:41.159Z,1002.51
2019-03-16T11:15:39.567Z,1002.53
2019-03-16T11:16:39.598Z,1002.52
2019-03-16T11:17:39.610Z,1002.67
2019-03-16T11:18:39.629Z,1002.62
2019-03-16T11:19:39.647Z,1002.61
2019-03-16T11:20:39.666Z,1002.60
2019-03-16T11:21:39.692Z,1002.62
2019-03-16T11:22:39.716Z,1002.65
2019-03-16T11:23:39.733Z,1002.39
2019-03-16T11:24:39.816Z,1002.46
2019-03-16T11:25:39.780Z,1002.71
2019-03-16T11:26:39.793Z,1002.56
2019-03-16T11:27:39.827Z,1002.43
2019-03-16T11:28:39.844Z,1002.26
2019-03-16T11:29:39.855Z,1002.66
2019-03-16T11:30:39.876Z,1002.67
2019-03-16T11:31:39.907Z,1002.69
2019-03-16T11:32:39.931Z,1002.70
2019-03-16T11:33:39.945Z,1002.67
2019-03-16T11:34:39.985Z,1002.78
2019-03-16T11:35:40.003Z,1002.35
2019-03-16T11:37:40.031Z,1002.59
2019-03-16T11:38:40.064Z,1002.20
2019-03-16T11:39:40.088Z,1002.33
2019-03-16T11:40:40.106Z,1002.53
2019-03-16T11:41:40.129Z,1002.29
2019-03-16T11:42:40.165Z,1002.36
2019-03-16T11:43:40.187Z,1002.31
2019-03-16T11:44:40.201Z,1002.21
2019-03-16T11:45:40.230Z,1002.19
2019-03-16T11:46:40.252Z,1002.27
2019-03-16T11:48:40.281Z,1002.08
2019-03-16T11:49:40.311Z,1002.14
2019-03-16T11:50:40.332Z,1002.19
2019-03-16T11:51:40.354Z,1002.16
2019-03-16T11:52:40.366Z,1002.21
2019-03-16T11:53:40.435Z,1002.13
2019-03-16T11:54:40.407Z,1002.17
2019-03-16T11:55:40.432Z,1002.06
2019-03-16T11:56:40.450Z,1002.10
2019-03-16T11:57:40.470Z,1002.22
2019-03-16T11:58:40.507Z,1002.02
2019-03-16T11:59:40.580Z,1002.34
2019-03-16T12:00:40.530Z,1002.25
2019-03-16T12:01:40.551Z,1002.12
2019-03-16T12:02:40.570Z,1002.48
2019-03-16T12:03:40.587Z,1002.24
2019-03-16T12:04:40.603Z,1002.12
2019-03-16T12:05:40.621Z,1002.09
2019-03-16T12:06:40.671Z,1002.11
2019-03-16T12:07:40.687Z,1002.15
2019-03-16T12:08:40.743Z,1002.23
2019-03-16T12:09:40.697Z,1002.23
2019-03-16T12:10:40.737Z,1002.21
2019-03-16T12:11:40.742Z,1002.22
2019-03-16T12:12:40.781Z,1002.29
2019-03-16T12:13:43.730Z,1002.18
2019-03-16T12:14:40.793Z,1002.29
2019-03-16T12:15:40.813Z,1002.19
2019-03-16T12:16:40.838Z,1002.16
2019-03-16T12:17:40.853Z,1002.26
2019-03-16T12:18:40.870Z,1002.24
2019-03-16T12:19:40.887Z,1002.15
2019-03-16T12:20:40.907Z,1002.16
2019-03-16T12:21:40.931Z,1002.09
2019-03-16T12:22:40.946Z,1002.00
2019-03-16T12:23:40.964Z,1002.05
2019-03-16T12:24:40.988Z,1002.00
2019-03-16T12:25:40.998Z,1002.06
2019-03-16T12:26:41.016Z,1001.95
2019-03-16T12:27:41.045Z,1002.00
2019-03-16T12:28:41.052Z,1002.10
2019-03-16T12:29:41.088Z,1002.07
2019-03-16T12:30:41.087Z,1001.92
2019-03-16T12:31:41.107Z,1001.99
2019-03-16T12:32:41.131Z,1002.03
2019-03-16T12:33:41.146Z,1002.08
2019-03-16T12:34:41.191Z,1001.93
2019-03-16T12:35:41.192Z,1002.03
2019-03-16T12:36:41.210Z,1001.79
2019-03-16T12:37:41.219Z,1001.87
2019-03-16T12:38:41.236Z,1001.91
2019-03-16T12:40:41.275Z,1001.92
2019-03-16T12:41:41.290Z,1001.84
2019-03-16T12:42:41.320Z,1001.90
2019-03-16T12:43:41.336Z,1001.88
2019-03-16T12:44:41.383Z,1001.85
2019-03-16T12:45:41.378Z,1001.77
2019-03-16T12:46:41.382Z,1001.94
2019-03-16T12:47:41.399Z,1001.97
2019-03-16T12:48:41.421Z,1001.90
2019-03-16T12:49:41.436Z,1001.90
2019-03-16T12:50:41.455Z,1001.77
2019-03-16T12:51:41.518Z,1001.91
2019-03-16T12:52:41.504Z,1001.90
2019-03-16T12:53:41.535Z,1001.97
2019-03-16T12:54:41.534Z,1002.08